sensor_id;sensor_type;location;lat;lon;timestamp;P1;durP1;ratioP1;P2;durP2;ratioP2
73733;SDS011;62039;50.000;9.064;2022-10-16T00:00:52;1.13;;;1.03;;
73733;SDS011;62039;50.000;9.064;2022-10-16T00:03:19;1.97;;;1.10;;
73733;SDS011;62039;50.000;9.064;2022-10-16T00:05:45;1.23;;;1.10;;
73733;SDS011;62039;50.000;9.064;2022-10-16T00:08:12;1.60;;;1.30;;
73733;SDS011;62039;50.000;9.064;2022-10-16T00:10:40;2.47;;;1.33;;
73733;SDS011;62039;50.000;9.064;2022-10-16T00:13:07;2.83;;;1.63;;
73733;SDS011;62039;50.000;9.064;2022-10-16T00:15:34;1.90;;;1.43;;
73733;SDS011;62039;50.000;9.064;2022-10-16T00:18:01;1.27;;;1.17;;
73733;SDS011;62039;50.000;9.064;2022-10-16T00:20:28;1.30;;;1.20;;
73733;SDS011;62039;50.000;9.064;2022-10-16T00:22:54;1.53;;;1.40;;
73733;SDS011;62039;50.000;9.064;2022-10-16T00:25:21;3.33;;;1.40;;
73733;SDS011;62039;50.000;9.064;2022-10-16T00:27:49;2.13;;;1.03;;
73733;SDS011;62039;50.000;9.064;2022-10-16T00:30:15;4.17;;;1.00;;
73733;SDS011;62039;50.000;9.064;2022-10-16T00:32:42;1.43;;;1.10;;
73733;SDS011;62039;50.000;9.064;2022-10-16T00:35:08;1.57;;;0.83;;
73733;SDS011;62039;50.000;9.064;2022-10-16T00:37:35;0.80;;;0.80;;
73733;SDS011;62039;50.000;9.064;2022-10-16T00:40:02;1.23;;;0.80;;
73733;SDS011;62039;50.000;9.064;2022-10-16T00:42:28;1.00;;;0.77;;
73733;SDS011;62039;50.000;9.064;2022-10-16T00:44:56;0.60;;;0.60;;
73733;SDS011;62039;50.000;9.064;2022-10-16T00:47:24;2.43;;;1.27;;
73733;SDS011;62039;50.000;9.064;2022-10-16T00:49:55;1.40;;;1.00;;
73733;SDS011;62039;50.000;9.064;2022-10-16T00:52:26;1.47;;;1.17;;
73733;SDS011;62039;50.000;9.064;2022-10-16T00:54:53;2.77;;;1.30;;
73733;SDS011;62039;50.000;9.064;2022-10-16T00:57:21;1.07;;;0.97;;
73733;SDS011;62039;50.000;9.064;2022-10-16T00:59:48;0.93;;;0.80;;
73733;SDS011;62039;50.000;9.064;2022-10-16T01:02:16;2.03;;;1.20;;
73733;SDS011;62039;50.000;9.064;2022-10-16T01:04:44;0.80;;;0.80;;
73733;SDS011;62039;50.000;9.064;2022-10-16T01:07:14;1.10;;;0.90;;
73733;SDS011;62039;50.000;9.064;2022-10-16T01:09:47;0.93;;;0.80;;
73733;SDS011;62039;50.000;9.064;2022-10-16T01:12:22;1.37;;;1.10;;
73733;SDS011;62039;50.000;9.064;2022-10-16T01:15:02;1.57;;;1.10;;
73733;SDS011;62039;50.000;9.064;2022-10-16T01:17:37;1.57;;;0.77;;
73733;SDS011;62039;50.000;9.064;2022-10-16T01:20:10;0.90;;;0.90;;
73733;SDS011;62039;50.000;9.064;2022-10-16T01:22:47;0.80;;;0.70;;
73733;SDS011;62039;50.000;9.064;2022-10-16T01:28:41;1.63;;;0.80;;
73733;SDS011;62039;50.000;9.064;2022-10-16T01:31:11;0.90;;;0.77;;
73733;SDS011;62039;50.000;9.064;2022-10-16T01:33:43;2.80;;;1.00;;
73733;SDS011;62039;50.000;9.064;2022-10-16T01:36:14;1.27;;;0.90;;
73733;SDS011;62039;50.000;9.064;2022-10-16T01:38:44;1.13;;;0.90;;
73733;SDS011;62039;50.000;9.064;2022-10-16T01:41:15;0.87;;;0.83;;
73733;SDS011;62039;50.000;9.064;2022-10-16T01:43:49;0.87;;;0.70;;
73733;SDS011;62039;50.000;9.064;2022-10-16T01:46:22;0.70;;;0.70;;
73733;SDS011;62039;50.000;9.064;2022-10-16T01:48:49;0.90;;;0.80;;
73733;SDS011;62039;50.000;9.064;2022-10-16T01:51:17;0.80;;;0.60;;
73733;SDS011;62039;50.000;9.064;2022-10-16T01:53:52;0.97;;;0.87;;
73733;SDS011;62039;50.000;9.064;2022-10-16T01:56:21;1.03;;;0.80;;
73733;SDS011;62039;50.000;9.064;2022-10-16T01:58:51;0.97;;;0.87;;
73733;SDS011;62039;50.000;9.064;2022-10-16T02:01:20;0.70;;;0.70;;
73733;SDS011;62039;50.000;9.064;2022-10-16T02:03:49;1.07;;;0.70;;
73733;SDS011;62039;50.000;9.064;2022-10-16T02:06:19;1.17;;;0.90;;
73733;SDS011;62039;50.000;9.064;2022-10-16T02:08:46;0.93;;;0.83;;
73733;SDS011;62039;50.000;9.064;2022-10-16T02:11:13;2.00;;;0.80;;
73733;SDS011;62039;50.000;9.064;2022-10-16T02:13:41;1.17;;;0.80;;
73733;SDS011;62039;50.000;9.064;2022-10-16T02:16:11;1.20;;;0.70;;
73733;SDS011;62039;50.000;9.064;2022-10-16T02:18:38;0.80;;;0.70;;
73733;SDS011;62039;50.000;9.064;2022-10-16T02:21:06;0.70;;;0.70;;
73733;SDS011;62039;50.000;9.064;2022-10-16T02:23:42;0.70;;;0.70;;
73733;SDS011;62039;50.000;9.064;2022-10-16T02:26:16;0.77;;;0.63;;
73733;SDS011;62039;50.000;9.064;2022-10-16T02:28:54;0.97;;;0.77;;
73733;SDS011;62039;50.000;9.064;2022-10-16T02:31:27;0.50;;;0.50;;
73733;SDS011;62039;50.000;9.064;2022-10-16T02:33:58;0.97;;;0.70;;
73733;SDS011;62039;50.000;9.064;2022-10-16T02:36:26;0.60;;;0.60;;
73733;SDS011;62039;50.000;9.064;2022-10-16T02:38:53;0.50;;;0.50;;
73733;SDS011;62039;50.000;9.064;2022-10-16T02:41:20;2.67;;;0.70;;
73733;SDS011;62039;50.000;9.064;2022-10-16T02:43:47;3.33;;;0.80;;
73733;SDS011;62039;50.000;9.064;2022-10-16T02:46:13;0.83;;;0.60;;
73733;SDS011;62039;50.000;9.064;2022-10-16T02:48:41;0.70;;;0.70;;
73733;SDS011;62039;50.000;9.064;2022-10-16T02:51:08;0.77;;;0.53;;
73733;SDS011;62039;50.000;9.064;2022-10-16T02:53:34;0.87;;;0.60;;
73733;SDS011;62039;50.000;9.064;2022-10-16T02:56:01;0.40;;;0.40;;
73733;SDS011;62039;50.000;9.064;2022-10-16T02:58:27;3.83;;;0.70;;
73733;SDS011;62039;50.000;9.064;2022-10-16T03:00:54;0.60;;;0.60;;
73733;SDS011;62039;50.000;9.064;2022-10-16T03:03:21;0.40;;;0.40;;
73733;SDS011;62039;50.000;9.064;2022-10-16T03:05:49;0.83;;;0.50;;
73733;SDS011;62039;50.000;9.064;2022-10-16T03:08:15;1.50;;;0.77;;
73733;SDS011;62039;50.000;9.064;2022-10-16T03:10:42;0.40;;;0.40;;
73733;SDS011;62039;50.000;9.064;2022-10-16T03:13:08;1.33;;;0.40;;
73733;SDS011;62039;50.000;9.064;2022-10-16T03:15:35;1.80;;;0.40;;
73733;SDS011;62039;50.000;9.064;2022-10-16T03:18:02;0.43;;;0.43;;
73733;SDS011;62039;50.000;9.064;2022-10-16T03:20:28;0.60;;;0.40;;
73733;SDS011;62039;50.000;9.064;2022-10-16T03:22:56;0.40;;;0.40;;
73733;SDS011;62039;50.000;9.064;2022-10-16T03:25:22;0.50;;;0.43;;
73733;SDS011;62039;50.000;9.064;2022-10-16T03:27:49;0.50;;;0.40;;
73733;SDS011;62039;50.000;9.064;2022-10-16T03:30:16;0.40;;;0.40;;
73733;SDS011;62039;50.000;9.064;2022-10-16T03:32:43;0.50;;;0.50;;
73733;SDS011;62039;50.000;9.064;2022-10-16T03:35:10;0.70;;;0.53;;
73733;SDS011;62039;50.000;9.064;2022-10-16T03:37:36;0.60;;;0.60;;
73733;SDS011;62039;50.000;9.064;2022-10-16T03:40:05;0.30;;;0.30;;
73733;SDS011;62039;50.000;9.064;2022-10-16T03:42:32;0.50;;;0.50;;
73733;SDS011;62039;50.000;9.064;2022-10-16T03:44:58;0.60;;;0.50;;
73733;SDS011;62039;50.000;9.064;2022-10-16T03:47:25;0.50;;;0.50;;
73733;SDS011;62039;50.000;9.064;2022-10-16T03:49:52;0.50;;;0.50;;
73733;SDS011;62039;50.000;9.064;2022-10-16T03:52:18;0.47;;;0.47;;
73733;SDS011;62039;50.000;9.064;2022-10-16T03:54:45;0.50;;;0.50;;
73733;SDS011;62039;50.000;9.064;2022-10-16T03:57:13;2.13;;;0.63;;
73733;SDS011;62039;50.000;9.064;2022-10-16T03:59:39;1.13;;;0.60;;
73733;SDS011;62039;50.000;9.064;2022-10-16T04:02:06;0.50;;;0.50;;
73733;SDS011;62039;50.000;9.064;2022-10-16T04:04:33;3.70;;;0.70;;
73733;SDS011;62039;50.000;9.064;2022-10-16T04:07:03;1.47;;;0.80;;
73733;SDS011;62039;50.000;9.064;2022-10-16T04:09:29;0.50;;;0.50;;
73733;SDS011;62039;50.000;9.064;2022-10-16T04:11:56;0.53;;;0.50;;
73733;SDS011;62039;50.000;9.064;2022-10-16T04:14:24;0.67;;;0.67;;
73733;SDS011;62039;50.000;9.064;2022-10-16T04:16:50;0.77;;;0.77;;
73733;SDS011;62039;50.000;9.064;2022-10-16T04:19:17;2.33;;;0.80;;
73733;SDS011;62039;50.000;9.064;2022-10-16T04:21:43;0.93;;;0.70;;
73733;SDS011;62039;50.000;9.064;2022-10-16T04:24:10;0.87;;;0.70;;
73733;SDS011;62039;50.000;9.064;2022-10-16T04:26:37;1.70;;;0.80;;
73733;SDS011;62039;50.000;9.064;2022-10-16T04:29:03;0.67;;;0.67;;
73733;SDS011;62039;50.000;9.064;2022-10-16T04:31:34;1.47;;;0.70;;
73733;SDS011;62039;50.000;9.064;2022-10-16T04:34:01;0.70;;;0.70;;
73733;SDS011;62039;50.000;9.064;2022-10-16T04:36:27;0.70;;;0.70;;
73733;SDS011;62039;50.000;9.064;2022-10-16T04:38:54;0.60;;;0.60;;
73733;SDS011;62039;50.000;9.064;2022-10-16T04:41:21;0.70;;;0.70;;
73733;SDS011;62039;50.000;9.064;2022-10-16T04:43:47;1.03;;;0.90;;
73733;SDS011;62039;50.000;9.064;2022-10-16T04:46:14;0.90;;;0.80;;
73733;SDS011;62039;50.000;9.064;2022-10-16T04:48:42;1.43;;;0.90;;
73733;SDS011;62039;50.000;9.064;2022-10-16T04:51:08;0.60;;;0.60;;
73733;SDS011;62039;50.000;9.064;2022-10-16T04:53:35;1.97;;;0.70;;
73733;SDS011;62039;50.000;9.064;2022-10-16T04:56:01;2.10;;;0.70;;
73733;SDS011;62039;50.000;9.064;2022-10-16T04:58:28;0.87;;;0.80;;
73733;SDS011;62039;50.000;9.064;2022-10-16T05:00:54;0.60;;;0.60;;
73733;SDS011;62039;50.000;9.064;2022-10-16T05:03:21;0.63;;;0.63;;
73733;SDS011;62039;50.000;9.064;2022-10-16T05:05:49;0.73;;;0.70;;
73733;SDS011;62039;50.000;9.064;2022-10-16T05:08:15;1.27;;;0.87;;
73733;SDS011;62039;50.000;9.064;2022-10-16T05:10:43;0.63;;;0.63;;
73733;SDS011;62039;50.000;9.064;2022-10-16T05:13:10;0.80;;;0.80;;
73733;SDS011;62039;50.000;9.064;2022-10-16T05:15:37;1.27;;;0.70;;
73733;SDS011;62039;50.000;9.064;2022-10-16T05:18:04;1.30;;;0.70;;
73733;SDS011;62039;50.000;9.064;2022-10-16T05:20:31;1.47;;;0.80;;
73733;SDS011;62039;50.000;9.064;2022-10-16T05:22:59;0.87;;;0.87;;
73733;SDS011;62039;50.000;9.064;2022-10-16T05:25:25;1.17;;;0.90;;
73733;SDS011;62039;50.000;9.064;2022-10-16T05:27:52;1.07;;;0.70;;
73733;SDS011;62039;50.000;9.064;2022-10-16T05:30:19;1.03;;;0.80;;
73733;SDS011;62039;50.000;9.064;2022-10-16T05:32:46;2.07;;;1.07;;
73733;SDS011;62039;50.000;9.064;2022-10-16T05:35:13;1.10;;;0.90;;
73733;SDS011;62039;50.000;9.064;2022-10-16T05:37:40;1.10;;;0.80;;
73733;SDS011;62039;50.000;9.064;2022-10-16T05:40:08;0.73;;;0.73;;
73733;SDS011;62039;50.000;9.064;2022-10-16T05:42:35;1.10;;;0.90;;
73733;SDS011;62039;50.000;9.064;2022-10-16T05:45:02;1.67;;;0.70;;
73733;SDS011;62039;50.000;9.064;2022-10-16T05:47:29;0.83;;;0.80;;
73733;SDS011;62039;50.000;9.064;2022-10-16T05:49:55;0.73;;;0.70;;
73733;SDS011;62039;50.000;9.064;2022-10-16T05:52:22;0.70;;;0.70;;
73733;SDS011;62039;50.000;9.064;2022-10-16T05:54:48;0.70;;;0.70;;
73733;SDS011;62039;50.000;9.064;2022-10-16T05:57:16;1.80;;;0.70;;
73733;SDS011;62039;50.000;9.064;2022-10-16T05:59:43;2.00;;;1.00;;
73733;SDS011;62039;50.000;9.064;2022-10-16T06:02:10;2.93;;;0.80;;
73733;SDS011;62039;50.000;9.064;2022-10-16T06:04:38;0.77;;;0.77;;
73733;SDS011;62039;50.000;9.064;2022-10-16T06:07:05;1.00;;;0.70;;
73733;SDS011;62039;50.000;9.064;2022-10-16T06:09:31;0.70;;;0.70;;
73733;SDS011;62039;50.000;9.064;2022-10-16T06:11:58;0.60;;;0.60;;
73733;SDS011;62039;50.000;9.064;2022-10-16T06:14:26;0.60;;;0.60;;
73733;SDS011;62039;50.000;9.064;2022-10-16T06:16:52;1.60;;;0.80;;
73733;SDS011;62039;50.000;9.064;2022-10-16T06:19:19;0.83;;;0.83;;
73733;SDS011;62039;50.000;9.064;2022-10-16T06:21:45;2.03;;;1.13;;
73733;SDS011;62039;50.000;9.064;2022-10-16T06:24:12;1.10;;;1.00;;
73733;SDS011;62039;50.000;9.064;2022-10-16T06:26:38;1.00;;;0.80;;
73733;SDS011;62039;50.000;9.064;2022-10-16T06:29:05;1.10;;;1.00;;
73733;SDS011;62039;50.000;9.064;2022-10-16T06:31:33;1.40;;;1.30;;
73733;SDS011;62039;50.000;9.064;2022-10-16T06:34:00;3.70;;;1.53;;
73733;SDS011;62039;50.000;9.064;2022-10-16T06:36:26;2.40;;;2.20;;
73733;SDS011;62039;50.000;9.064;2022-10-16T06:38:53;3.03;;;2.83;;
73733;SDS011;62039;50.000;9.064;2022-10-16T06:41:20;2.73;;;2.50;;
73733;SDS011;62039;50.000;9.064;2022-10-16T06:43:48;2.43;;;2.23;;
73733;SDS011;62039;50.000;9.064;2022-10-16T06:46:16;2.60;;;2.40;;
73733;SDS011;62039;50.000;9.064;2022-10-16T06:48:46;2.47;;;2.13;;
73733;SDS011;62039;50.000;9.064;2022-10-16T06:51:13;3.97;;;1.90;;
73733;SDS011;62039;50.000;9.064;2022-10-16T06:53:41;1.67;;;1.27;;
73733;SDS011;62039;50.000;9.064;2022-10-16T06:56:28;1.97;;;1.20;;
73733;SDS011;62039;50.000;9.064;2022-10-16T06:58:55;1.17;;;1.07;;
73733;SDS011;62039;50.000;9.064;2022-10-16T07:01:22;1.20;;;1.10;;
73733;SDS011;62039;50.000;9.064;2022-10-16T07:03:50;1.43;;;0.80;;
73733;SDS011;62039;50.000;9.064;2022-10-16T07:06:18;1.20;;;0.80;;
73733;SDS011;62039;50.000;9.064;2022-10-16T07:08:47;1.07;;;0.97;;
73733;SDS011;62039;50.000;9.064;2022-10-16T07:11:14;1.03;;;1.03;;
73733;SDS011;62039;50.000;9.064;2022-10-16T07:13:42;1.37;;;1.10;;
73733;SDS011;62039;50.000;9.064;2022-10-16T07:16:12;1.77;;;1.27;;
73733;SDS011;62039;50.000;9.064;2022-10-16T07:18:40;0.83;;;0.83;;
73733;SDS011;62039;50.000;9.064;2022-10-16T07:21:08;1.50;;;1.20;;
73733;SDS011;62039;50.000;9.064;2022-10-16T07:23:36;1.30;;;1.20;;
73733;SDS011;62039;50.000;9.064;2022-10-16T07:26:03;3.13;;;1.50;;
73733;SDS011;62039;50.000;9.064;2022-10-16T07:28:31;1.90;;;1.20;;
73733;SDS011;62039;50.000;9.064;2022-10-16T07:30:59;1.47;;;1.37;;
73733;SDS011;62039;50.000;9.064;2022-10-16T07:33:27;1.73;;;1.50;;
73733;SDS011;62039;50.000;9.064;2022-10-16T07:35:54;1.57;;;1.47;;
73733;SDS011;62039;50.000;9.064;2022-10-16T07:38:22;1.70;;;1.60;;
73733;SDS011;62039;50.000;9.064;2022-10-16T07:40:55;1.53;;;1.33;;
73733;SDS011;62039;50.000;9.064;2022-10-16T07:43:22;1.20;;;1.10;;
73733;SDS011;62039;50.000;9.064;2022-10-16T07:45:49;1.30;;;1.17;;
73733;SDS011;62039;50.000;9.064;2022-10-16T07:48:21;1.43;;;1.00;;
73733;SDS011;62039;50.000;9.064;2022-10-16T07:50:48;2.10;;;1.37;;
73733;SDS011;62039;50.000;9.064;2022-10-16T07:53:15;1.30;;;1.17;;
73733;SDS011;62039;50.000;9.064;2022-10-16T07:55:43;1.13;;;1.00;;
73733;SDS011;62039;50.000;9.064;2022-10-16T07:58:10;1.80;;;1.13;;
73733;SDS011;62039;50.000;9.064;2022-10-16T08:00:36;1.40;;;1.10;;
73733;SDS011;62039;50.000;9.064;2022-10-16T08:03:03;0.80;;;0.80;;
73733;SDS011;62039;50.000;9.064;2022-10-16T08:05:31;1.03;;;0.93;;
73733;SDS011;62039;50.000;9.064;2022-10-16T08:07:59;1.30;;;1.20;;
73733;SDS011;62039;50.000;9.064;2022-10-16T08:10:26;1.17;;;1.07;;
73733;SDS011;62039;50.000;9.064;2022-10-16T08:12:55;1.97;;;1.07;;
73733;SDS011;62039;50.000;9.064;2022-10-16T08:15:22;1.10;;;1.00;;
73733;SDS011;62039;50.000;9.064;2022-10-16T08:17:55;3.20;;;1.30;;
73733;SDS011;62039;50.000;9.064;2022-10-16T08:20:23;2.63;;;1.43;;
73733;SDS011;62039;50.000;9.064;2022-10-16T08:22:50;1.10;;;1.00;;
73733;SDS011;62039;50.000;9.064;2022-10-16T08:25:17;1.53;;;1.03;;
73733;SDS011;62039;50.000;9.064;2022-10-16T08:27:43;1.33;;;1.10;;
73733;SDS011;62039;50.000;9.064;2022-10-16T08:30:11;1.07;;;0.97;;
73733;SDS011;62039;50.000;9.064;2022-10-16T08:32:38;1.73;;;1.00;;
73733;SDS011;62039;50.000;9.064;2022-10-16T08:35:05;1.67;;;1.00;;
73733;SDS011;62039;50.000;9.064;2022-10-16T08:37:32;2.33;;;1.20;;
73733;SDS011;62039;50.000;9.064;2022-10-16T08:39:59;1.20;;;1.10;;
73733;SDS011;62039;50.000;9.064;2022-10-16T08:42:31;2.10;;;1.10;;
73733;SDS011;62039;50.000;9.064;2022-10-16T08:45:25;1.10;;;1.00;;
73733;SDS011;62039;50.000;9.064;2022-10-16T08:48:05;2.87;;;1.10;;
73733;SDS011;62039;50.000;9.064;2022-10-16T08:50:40;0.80;;;0.80;;
73733;SDS011;62039;50.000;9.064;2022-10-16T08:53:09;1.43;;;1.33;;
73733;SDS011;62039;50.000;9.064;2022-10-16T08:55:41;1.37;;;1.27;;
73733;SDS011;62039;50.000;9.064;2022-10-16T08:58:12;1.60;;;1.33;;
73733;SDS011;62039;50.000;9.064;2022-10-16T09:00:42;1.47;;;1.37;;
73733;SDS011;62039;50.000;9.064;2022-10-16T09:03:14;2.10;;;1.50;;
73733;SDS011;62039;50.000;9.064;2022-10-16T09:06:07;1.93;;;1.27;;
73733;SDS011;62039;50.000;9.064;2022-10-16T09:08:45;1.40;;;1.30;;
73733;SDS011;62039;50.000;9.064;2022-10-16T09:11:18;1.37;;;1.27;;
73733;SDS011;62039;50.000;9.064;2022-10-16T09:13:57;2.90;;;1.60;;
73733;SDS011;62039;50.000;9.064;2022-10-16T09:16:34;2.30;;;2.10;;
73733;SDS011;62039;50.000;9.064;2022-10-16T09:19:09;2.13;;;1.93;;
73733;SDS011;62039;50.000;9.064;2022-10-16T09:21:41;2.00;;;1.63;;
73733;SDS011;62039;50.000;9.064;2022-10-16T09:24:10;6.03;;;1.77;;
73733;SDS011;62039;50.000;9.064;2022-10-16T09:26:40;3.40;;;1.70;;
73733;SDS011;62039;50.000;9.064;2022-10-16T09:29:08;2.07;;;1.90;;
73733;SDS011;62039;50.000;9.064;2022-10-16T09:31:37;3.53;;;2.27;;
73733;SDS011;62039;50.000;9.064;2022-10-16T09:34:03;4.93;;;1.80;;
73733;SDS011;62039;50.000;9.064;2022-10-16T09:36:34;1.60;;;1.50;;
73733;SDS011;62039;50.000;9.064;2022-10-16T09:39:06;1.87;;;1.30;;
73733;SDS011;62039;50.000;9.064;2022-10-16T09:41:34;2.93;;;1.83;;
73733;SDS011;62039;50.000;9.064;2022-10-16T09:44:03;2.30;;;1.50;;
73733;SDS011;62039;50.000;9.064;2022-10-16T09:46:32;5.43;;;2.10;;
73733;SDS011;62039;50.000;9.064;2022-10-16T09:49:02;3.03;;;1.70;;
73733;SDS011;62039;50.000;9.064;2022-10-16T09:51:30;1.83;;;1.63;;
73733;SDS011;62039;50.000;9.064;2022-10-16T09:53:59;2.23;;;1.80;;
73733;SDS011;62039;50.000;9.064;2022-10-16T09:56:27;2.57;;;1.83;;
73733;SDS011;62039;50.000;9.064;2022-10-16T09:58:56;1.70;;;1.47;;
73733;SDS011;62039;50.000;9.064;2022-10-16T10:01:24;1.90;;;1.60;;
73733;SDS011;62039;50.000;9.064;2022-10-16T10:03:55;1.53;;;1.20;;
73733;SDS011;62039;50.000;9.064;2022-10-16T10:06:25;1.50;;;1.30;;
73733;SDS011;62039;50.000;9.064;2022-10-16T10:08:56;1.60;;;1.50;;
73733;SDS011;62039;50.000;9.064;2022-10-16T10:14:21;1.43;;;1.27;;
73733;SDS011;62039;50.000;9.064;2022-10-16T10:16:50;2.20;;;1.40;;
73733;SDS011;62039;50.000;9.064;2022-10-16T10:19:19;1.30;;;1.20;;
73733;SDS011;62039;50.000;9.064;2022-10-16T10:21:49;1.47;;;1.37;;
73733;SDS011;62039;50.000;9.064;2022-10-16T10:24:17;2.27;;;1.50;;
73733;SDS011;62039;50.000;9.064;2022-10-16T10:26:52;1.40;;;1.20;;
73733;SDS011;62039;50.000;9.064;2022-10-16T10:29:38;1.67;;;1.50;;
73733;SDS011;62039;50.000;9.064;2022-10-16T10:32:16;1.70;;;1.47;;
73733;SDS011;62039;50.000;9.064;2022-10-16T10:35:00;1.47;;;1.20;;
73733;SDS011;62039;50.000;9.064;2022-10-16T10:37:42;1.70;;;1.43;;
73733;SDS011;62039;50.000;9.064;2022-10-16T10:40:22;2.50;;;1.33;;
73733;SDS011;62039;50.000;9.064;2022-10-16T10:42:57;2.20;;;1.20;;
73733;SDS011;62039;50.000;9.064;2022-10-16T10:45:35;1.97;;;1.20;;
73733;SDS011;62039;50.000;9.064;2022-10-16T10:48:12;2.00;;;1.47;;
73733;SDS011;62039;50.000;9.064;2022-10-16T10:50:48;1.33;;;1.23;;
73733;SDS011;62039;50.000;9.064;2022-10-16T10:53:24;1.67;;;1.17;;
73733;SDS011;62039;50.000;9.064;2022-10-16T10:56:05;1.80;;;1.40;;
73733;SDS011;62039;50.000;9.064;2022-10-16T10:58:50;1.37;;;1.00;;
73733;SDS011;62039;50.000;9.064;2022-10-16T11:01:35;1.23;;;1.13;;
73733;SDS011;62039;50.000;9.064;2022-10-16T11:04:22;1.00;;;0.90;;
73733;SDS011;62039;50.000;9.064;2022-10-16T11:07:00;0.87;;;0.87;;
73733;SDS011;62039;50.000;9.064;2022-10-16T11:09:32;1.27;;;1.13;;
73733;SDS011;62039;50.000;9.064;2022-10-16T11:12:05;1.87;;;1.40;;
73733;SDS011;62039;50.000;9.064;2022-10-16T11:14:36;1.87;;;1.10;;
73733;SDS011;62039;50.000;9.064;2022-10-16T11:17:10;2.20;;;1.13;;
73733;SDS011;62039;50.000;9.064;2022-10-16T11:19:40;1.40;;;0.93;;
73733;SDS011;62039;50.000;9.064;2022-10-16T11:22:12;1.00;;;0.80;;
73733;SDS011;62039;50.000;9.064;2022-10-16T11:24:46;0.70;;;0.70;;
73733;SDS011;62039;50.000;9.064;2022-10-16T11:27:19;1.27;;;1.00;;
73733;SDS011;62039;50.000;9.064;2022-10-16T11:29:54;0.83;;;0.80;;
73733;SDS011;62039;50.000;9.064;2022-10-16T11:32:25;1.07;;;0.70;;
73733;SDS011;62039;50.000;9.064;2022-10-16T11:34:59;1.23;;;0.90;;
73733;SDS011;62039;50.000;9.064;2022-10-16T11:37:31;1.10;;;1.00;;
73733;SDS011;62039;50.000;9.064;2022-10-16T11:40:04;0.70;;;0.70;;
73733;SDS011;62039;50.000;9.064;2022-10-16T11:42:44;0.60;;;0.60;;
73733;SDS011;62039;50.000;9.064;2022-10-16T11:45:20;1.90;;;0.90;;
73733;SDS011;62039;50.000;9.064;2022-10-16T11:47:54;0.80;;;0.80;;
73733;SDS011;62039;50.000;9.064;2022-10-16T11:50:28;1.20;;;1.00;;
73733;SDS011;62039;50.000;9.064;2022-10-16T11:53:01;1.00;;;0.90;;
73733;SDS011;62039;50.000;9.064;2022-10-16T11:55:32;1.70;;;0.87;;
73733;SDS011;62039;50.000;9.064;2022-10-16T11:58:03;1.43;;;0.90;;
73733;SDS011;62039;50.000;9.064;2022-10-16T12:00:35;1.23;;;1.00;;
73733;SDS011;62039;50.000;9.064;2022-10-16T12:03:10;0.70;;;0.70;;
73733;SDS011;62039;50.000;9.064;2022-10-16T12:05:50;0.73;;;0.60;;
73733;SDS011;62039;50.000;9.064;2022-10-16T12:08:23;1.00;;;0.80;;
73733;SDS011;62039;50.000;9.064;2022-10-16T12:10:52;0.67;;;0.67;;
73733;SDS011;62039;50.000;9.064;2022-10-16T12:13:28;0.70;;;0.70;;
73733;SDS011;62039;50.000;9.064;2022-10-16T12:16:07;0.90;;;0.60;;
73733;SDS011;62039;50.000;9.064;2022-10-16T12:18:47;0.73;;;0.73;;
73733;SDS011;62039;50.000;9.064;2022-10-16T12:21:15;0.87;;;0.60;;
73733;SDS011;62039;50.000;9.064;2022-10-16T12:23:46;0.70;;;0.67;;
73733;SDS011;62039;50.000;9.064;2022-10-16T12:26:16;1.17;;;0.67;;
73733;SDS011;62039;50.000;9.064;2022-10-16T12:28:50;1.07;;;0.70;;
73733;SDS011;62039;50.000;9.064;2022-10-16T12:31:17;1.27;;;0.90;;
73733;SDS011;62039;50.000;9.064;2022-10-16T12:33:51;2.83;;;1.10;;
73733;SDS011;62039;50.000;9.064;2022-10-16T12:36:26;1.47;;;0.80;;
73733;SDS011;62039;50.000;9.064;2022-10-16T12:38:55;0.80;;;0.70;;
73733;SDS011;62039;50.000;9.064;2022-10-16T12:41:27;0.80;;;0.70;;
73733;SDS011;62039;50.000;9.064;2022-10-16T12:43:55;1.67;;;0.90;;
73733;SDS011;62039;50.000;9.064;2022-10-16T12:46:24;0.70;;;0.70;;
73733;SDS011;62039;50.000;9.064;2022-10-16T12:49:05;1.10;;;0.90;;
73733;SDS011;62039;50.000;9.064;2022-10-16T12:51:45;2.20;;;1.00;;
73733;SDS011;62039;50.000;9.064;2022-10-16T12:54:12;0.97;;;0.77;;
73733;SDS011;62039;50.000;9.064;2022-10-16T12:56:45;2.07;;;0.80;;
73733;SDS011;62039;50.000;9.064;2022-10-16T12:59:25;1.03;;;0.87;;
73733;SDS011;62039;50.000;9.064;2022-10-16T13:02:09;1.30;;;0.70;;
73733;SDS011;62039;50.000;9.064;2022-10-16T13:04:56;1.23;;;0.80;;
73733;SDS011;62039;50.000;9.064;2022-10-16T13:07:44;1.63;;;0.70;;
73733;SDS011;62039;50.000;9.064;2022-10-16T13:10:20;1.70;;;0.80;;
73733;SDS011;62039;50.000;9.064;2022-10-16T13:13:07;1.13;;;0.70;;
73733;SDS011;62039;50.000;9.064;2022-10-16T13:15:58;1.50;;;0.67;;
73733;SDS011;62039;50.000;9.064;2022-10-16T13:18:33;1.47;;;0.60;;
73733;SDS011;62039;50.000;9.064;2022-10-16T13:21:10;0.70;;;0.70;;
73733;SDS011;62039;50.000;9.064;2022-10-16T13:23:48;1.00;;;0.60;;
73733;SDS011;62039;50.000;9.064;2022-10-16T13:26:23;2.40;;;0.63;;
73733;SDS011;62039;50.000;9.064;2022-10-16T13:28:59;2.97;;;1.30;;
73733;SDS011;62039;50.000;9.064;2022-10-16T13:31:27;0.87;;;0.70;;
73733;SDS011;62039;50.000;9.064;2022-10-16T13:33:56;0.70;;;0.70;;
73733;SDS011;62039;50.000;9.064;2022-10-16T13:36:25;0.87;;;0.63;;
73733;SDS011;62039;50.000;9.064;2022-10-16T13:39:00;0.93;;;0.80;;
73733;SDS011;62039;50.000;9.064;2022-10-16T13:41:30;2.57;;;0.73;;
73733;SDS011;62039;50.000;9.064;2022-10-16T13:43:57;0.90;;;0.70;;
73733;SDS011;62039;50.000;9.064;2022-10-16T13:46:25;1.00;;;0.70;;
73733;SDS011;62039;50.000;9.064;2022-10-16T13:48:58;0.73;;;0.60;;
73733;SDS011;62039;50.000;9.064;2022-10-16T13:51:26;1.30;;;0.80;;
73733;SDS011;62039;50.000;9.064;2022-10-16T13:53:54;0.80;;;0.70;;
73733;SDS011;62039;50.000;9.064;2022-10-16T13:56:22;0.93;;;0.70;;
73733;SDS011;62039;50.000;9.064;2022-10-16T13:58:58;0.87;;;0.70;;
73733;SDS011;62039;50.000;9.064;2022-10-16T14:01:26;0.80;;;0.60;;
73733;SDS011;62039;50.000;9.064;2022-10-16T14:04:01;0.70;;;0.70;;
73733;SDS011;62039;50.000;9.064;2022-10-16T14:06:30;1.43;;;0.80;;
73733;SDS011;62039;50.000;9.064;2022-10-16T14:08:58;0.80;;;0.77;;
73733;SDS011;62039;50.000;9.064;2022-10-16T14:11:27;1.00;;;0.67;;
73733;SDS011;62039;50.000;9.064;2022-10-16T14:13:54;0.80;;;0.80;;
73733;SDS011;62039;50.000;9.064;2022-10-16T14:16:22;1.30;;;0.83;;
73733;SDS011;62039;50.000;9.064;2022-10-16T14:18:55;0.83;;;0.80;;
73733;SDS011;62039;50.000;9.064;2022-10-16T14:21:23;0.60;;;0.53;;
73733;SDS011;62039;50.000;9.064;2022-10-16T14:23:50;0.87;;;0.60;;
73733;SDS011;62039;50.000;9.064;2022-10-16T14:26:18;0.70;;;0.70;;
73733;SDS011;62039;50.000;9.064;2022-10-16T14:28:47;0.80;;;0.80;;
73733;SDS011;62039;50.000;9.064;2022-10-16T14:31:25;0.90;;;0.80;;
73733;SDS011;62039;50.000;9.064;2022-10-16T14:33:55;1.03;;;0.93;;
73733;SDS011;62039;50.000;9.064;2022-10-16T14:36:22;0.93;;;0.80;;
73733;SDS011;62039;50.000;9.064;2022-10-16T14:38:52;2.10;;;0.87;;
73733;SDS011;62039;50.000;9.064;2022-10-16T14:41:27;0.80;;;0.80;;
73733;SDS011;62039;50.000;9.064;2022-10-16T14:43:55;1.23;;;1.13;;
73733;SDS011;62039;50.000;9.064;2022-10-16T14:46:28;0.87;;;0.80;;
73733;SDS011;62039;50.000;9.064;2022-10-16T14:49:00;1.60;;;0.70;;
73733;SDS011;62039;50.000;9.064;2022-10-16T14:51:29;1.23;;;1.10;;
73733;SDS011;62039;50.000;9.064;2022-10-16T14:53:55;0.90;;;0.90;;
73733;SDS011;62039;50.000;9.064;2022-10-16T14:56:27;0.80;;;0.80;;
73733;SDS011;62039;50.000;9.064;2022-10-16T14:58:58;0.80;;;0.80;;
73733;SDS011;62039;50.000;9.064;2022-10-16T15:01:25;1.20;;;1.07;;
73733;SDS011;62039;50.000;9.064;2022-10-16T15:03:52;1.00;;;0.83;;
73733;SDS011;62039;50.000;9.064;2022-10-16T15:06:20;3.17;;;1.00;;
73733;SDS011;62039;50.000;9.064;2022-10-16T15:08:47;2.07;;;1.00;;
73733;SDS011;62039;50.000;9.064;2022-10-16T15:11:15;0.80;;;0.80;;